All Spectrum Aviation - Van Nuys Airport - KVNY

HOME

Condor Squadron KVNY Webcam

Visit our Electronics Store

Condor Squadron Webcam - Van Nuys Airport - KVNY
Picture taken: Sat, 20 Jul 2019 09:10:16 -0700
YouTube Channel!    Latest Timelapse Movie    Full Size Image    Regular Size Image    

2019/07/20 15:51 KVNY 201551Z 00000KT 9SM OVC017 19/14 A2997 RMK AO2 SLP140 T01940144

HOME

Condor Squadron KVNY Webcam

Visit our Electronics Store